Fort Lauderdale Executive Airport Fort Lauderdale US
ICAO: KFXE
IATA: FXE
Category: Medium
Scheduled Services: No

Elevation: 13 ft
TransAlt. 18000 ft.

Airport Communications:
MIAMI APP/DEP:119.7
ATIS:119.85
CLNC DEL:127.95
EXECUTIVE GND:121.75
EXECUTIVE TWR:120.9
UNICOM:122.95

KFXE Zoom In..

Runways:

(A) RW 08 length 6002 ft width 100 ft
ILS 111.10 / hdg 87

(B) RW 13 length 4000 ft width 100 ft
---- / hdg 132

(C) RW 26 length 6002 ft width 100 ft
---- / hdg 267

(D) RW 31 length 4000 ft width 100 ft
---- / hdg 312

Location; KFXE
Day. 20 / Time. 19.53 Zulu
* Altimeter: 29.99
* Temperature: 33° c. 91.4°f.
* Wind from: 170° Speed 13 kn with Gusts up to 17 kn.
Dewpoint: 21° c.
Visibility: 10 Statute Miles.
Clouds: Scattered 3000 ft.
Clouds: Scattered 12000 ft.

KFXE 201953Z 17013G17KT 10SM SCT030 SCT120 33/21 A2999 RMK AO2 SLP157 T03280206


Wind From 170°
Speed 13 kn.

 
 
jpsmedia.com for Web Design worldairports.se 2018   terms of use